createdAt,value
2022-08-30T00:01:58.162Z,22.0
2022-08-30T00:21:58.132Z,22.2
2022-08-30T00:41:58.122Z,21.9
2022-08-30T01:01:58.151Z,21.5
2022-08-30T01:21:58.035Z,21.5
2022-08-30T02:41:57.877Z,20.0
2022-08-30T03:01:57.948Z,19.4
2022-08-30T03:21:57.866Z,19.1
2022-08-30T03:41:57.802Z,18.7
2022-08-30T04:01:57.789Z,18.4
2022-08-30T04:21:57.762Z,18.5
2022-08-30T04:41:57.749Z,17.7
2022-08-30T05:01:57.708Z,17.9
2022-08-30T05:21:57.693Z,17.8
2022-08-30T05:41:57.659Z,17.3
2022-08-30T06:01:57.641Z,17.6
2022-08-30T06:21:57.688Z,18.1
2022-08-30T06:41:57.587Z,18.1
2022-08-30T07:01:57.569Z,18.7
2022-08-30T07:21:57.577Z,19.1
2022-08-30T07:41:57.540Z,19.6
2022-08-30T08:01:57.564Z,20.2
2022-08-30T08:21:57.543Z,21.2
2022-08-30T08:41:57.472Z,22.3
2022-08-30T09:01:57.415Z,22.9
2022-08-30T09:21:57.409Z,23.7
2022-08-30T09:41:57.473Z,24.3
2022-08-30T10:01:57.380Z,25.1
2022-08-30T10:21:57.303Z,25.8
2022-08-30T10:41:57.312Z,26.5
2022-08-30T11:01:57.265Z,27.3
2022-08-30T11:21:57.299Z,28.3
2022-08-30T11:41:57.214Z,28.9
2022-08-30T12:01:57.185Z,29.7
2022-08-30T12:41:57.231Z,30.8
2022-08-30T13:01:57.173Z,30.3
2022-08-30T13:21:57.120Z,30.4
2022-08-30T13:41:57.148Z,30.0
2022-08-30T14:01:57.067Z,30.7
2022-08-30T14:21:57.067Z,31.0
2022-08-30T14:41:56.997Z,30.1
2022-08-30T15:21:57.003Z,30.0
2022-08-30T15:41:56.959Z,30.0
2022-08-30T16:01:56.893Z,29.9
2022-08-30T16:21:56.874Z,29.8
2022-08-30T16:41:56.840Z,29.5
2022-08-30T17:01:56.857Z,29.2
2022-08-30T17:21:56.787Z,28.7
2022-08-30T17:41:56.817Z,28.2
2022-08-30T18:01:56.844Z,27.7
2022-08-30T18:21:56.812Z,27.0
2022-08-30T19:01:56.747Z,26.2
2022-08-30T19:21:56.636Z,25.4
2022-08-30T19:41:56.676Z,25.4
2022-08-30T20:01:56.662Z,24.9
2022-08-30T20:41:56.500Z,24.3
2022-08-30T21:01:56.560Z,24.2
2022-08-30T21:21:56.462Z,24.4
2022-08-30T21:41:56.449Z,24.5
2022-08-30T22:21:56.378Z,24.3
2022-08-30T22:41:56.374Z,24.2
2022-08-30T23:01:56.372Z,24.1
2022-08-30T23:21:56.305Z,24.0
2022-08-30T23:41:56.300Z,23.9
